createdAt,value
2018-02-27T00:00:53.849Z,101919.77
2018-02-27T00:03:22.238Z,101902.91
2018-02-27T00:05:50.651Z,101909.23
2018-02-27T00:08:19.558Z,101899.13
2018-02-27T00:10:48.925Z,101903.74
2018-02-27T00:13:19.497Z,101904.22
2018-02-27T00:15:49.482Z,101906.47
2018-02-27T00:18:18.470Z,101902.46
2018-02-27T00:20:46.942Z,101912.34
2018-02-27T00:23:15.358Z,101908.39
2018-02-27T00:25:44.170Z,101906.16
2018-02-27T00:28:12.985Z,101900.30
2018-02-27T00:30:43.273Z,101906.26
2018-02-27T00:33:11.804Z,101909.30
2018-02-27T00:35:40.223Z,101906.61
2018-02-27T00:38:08.690Z,101905.35
2018-02-27T00:40:37.524Z,101904.75
2018-02-27T00:43:06.333Z,101895.11
2018-02-27T00:45:35.088Z,101892.41
2018-02-27T00:48:04.727Z,101887.86
2018-02-27T00:50:33.161Z,101889.20
2018-02-27T00:53:01.562Z,101888.38
2018-02-27T00:55:31.968Z,101890.56
2018-02-27T00:58:00.670Z,101883.17
2018-02-27T01:00:31.058Z,101894.02
2018-02-27T01:02:59.541Z,101891.59
2018-02-27T01:05:27.943Z,101893.62
2018-02-27T01:07:56.342Z,101886.42
2018-02-27T01:10:25.496Z,101884.09
2018-02-27T01:12:53.900Z,101877.06
2018-02-27T01:15:22.308Z,101882.73
2018-02-27T01:17:51.330Z,101881.28
2018-02-27T01:20:20.786Z,101876.05
2018-02-27T01:22:49.474Z,101877.47
2018-02-27T01:25:18.049Z,101876.89
2018-02-27T01:27:46.635Z,101869.59
2018-02-27T01:30:15.110Z,101875.48
2018-02-27T01:32:43.525Z,101869.77
2018-02-27T01:35:12.775Z,101861.95
2018-02-27T01:37:41.492Z,101866.97
2018-02-27T01:40:10.455Z,101860.77
2018-02-27T01:42:39.394Z,101861.59
2018-02-27T01:45:07.885Z,101863.67
2018-02-27T01:47:36.305Z,101858.17
2018-02-27T01:50:04.943Z,101857.20
2018-02-27T01:52:34.802Z,101855.69
2018-02-27T01:55:04.112Z,101851.46
2018-02-27T01:57:32.509Z,101848.22
2018-02-27T02:00:00.927Z,101848.45
2018-02-27T02:02:29.848Z,101845.28
2018-02-27T02:04:58.322Z,101847.00
2018-02-27T02:07:28.982Z,101841.89
2018-02-27T02:09:59.641Z,101840.33
2018-02-27T02:12:28.458Z,101838.60
2018-02-27T02:14:56.864Z,101833.41
2018-02-27T02:17:25.715Z,101828.03
2018-02-27T02:19:54.143Z,101832.20
2018-02-27T02:22:22.748Z,101832.26
2018-02-27T02:24:51.259Z,101830.88
2018-02-27T02:27:19.861Z,101826.36
2018-02-27T02:29:48.298Z,101831.02
2018-02-27T02:32:16.700Z,101835.23
2018-02-27T02:34:45.167Z,101822.47
2018-02-27T02:37:14.321Z,101820.55
2018-02-27T02:39:42.720Z,101817.05
2018-02-27T02:42:26.061Z,101812.97
2018-02-27T02:44:55.625Z,101816.09
2018-02-27T02:47:25.624Z,101813.08
2018-02-27T02:49:54.029Z,101806.87
2018-02-27T02:52:22.433Z,101810.31
2018-02-27T02:54:51.557Z,101811.83
2018-02-27T02:57:20.344Z,101808.02
2018-02-27T02:59:49.149Z,101802.88
2018-02-27T03:02:17.652Z,101809.13
2018-02-27T03:04:46.135Z,101804.03
2018-02-27T03:07:14.556Z,101794.48
2018-02-27T03:09:42.973Z,101794.42
2018-02-27T03:12:11.448Z,101799.15
2018-02-27T03:14:40.440Z,101794.52
2018-02-27T03:17:08.989Z,101792.09
2018-02-27T03:19:37.903Z,101798.98
2018-02-27T03:22:07.873Z,101793.34
2018-02-27T03:24:36.293Z,101792.47
2018-02-27T03:27:05.372Z,101794.25
2018-02-27T03:29:33.821Z,101780.45
2018-02-27T03:32:02.363Z,101779.94
2018-02-27T03:34:30.787Z,101772.37
2018-02-27T03:37:00.587Z,101775.59
2018-02-27T03:39:29.014Z,101768.16
2018-02-27T03:41:57.917Z,101764.62
2018-02-27T03:44:26.323Z,101759.56
2018-02-27T03:46:54.724Z,101765.69
2018-02-27T03:49:24.428Z,101764.26
2018-02-27T03:51:52.911Z,101758.52
2018-02-27T03:54:21.957Z,101758.31
2018-02-27T03:56:51.080Z,101759.91
2018-02-27T03:59:19.491Z,101761.38
2018-02-27T04:01:48.208Z,101760.13
2018-02-27T04:04:17.722Z,101755.34
2018-02-27T04:06:46.107Z,101757.84
2018-02-27T04:09:14.544Z,101753.27
2018-02-27T04:11:45.243Z,101754.64
2018-02-27T04:14:14.566Z,101750.46
2018-02-27T04:16:43.008Z,101755.02
2018-02-27T04:19:11.391Z,101753.46
2018-02-27T04:21:41.280Z,101750.88
2018-02-27T04:24:09.719Z,101751.70
2018-02-27T04:26:38.119Z,101750.30
2018-02-27T04:29:06.856Z,101750.39
2018-02-27T04:31:36.798Z,101752.56
2018-02-27T04:34:05.650Z,101753.69
2018-02-27T04:36:34.535Z,101745.95
2018-02-27T04:39:03.320Z,101747.26
2018-02-27T04:41:32.951Z,101759.39
2018-02-27T04:44:01.355Z,101753.64
2018-02-27T04:46:30.219Z,101753.70
2018-02-27T04:48:58.650Z,101740.98
2018-02-27T04:51:27.068Z,101736.23
2018-02-27T04:53:55.881Z,101737.45
2018-02-27T04:56:24.283Z,101736.21
2018-02-27T04:58:52.718Z,101737.20
2018-02-27T05:01:21.512Z,101736.75
2018-02-27T05:03:51.730Z,101732.89
2018-02-27T05:06:20.702Z,101733.34
2018-02-27T05:08:49.106Z,101723.22
2018-02-27T05:11:17.498Z,101724.91
2018-02-27T05:13:46.307Z,101715.09
2018-02-27T05:16:14.751Z,101712.34
2018-02-27T05:18:43.938Z,101707.62
2018-02-27T05:21:12.879Z,101715.22
2018-02-27T05:23:41.903Z,101715.15
2018-02-27T05:26:10.665Z,101706.22
2018-02-27T05:28:39.088Z,101713.79
2018-02-27T05:31:07.896Z,101707.89
2018-02-27T05:33:36.310Z,101710.92
2018-02-27T05:36:04.729Z,101703.80
2018-02-27T05:38:33.653Z,101703.64
2018-02-27T05:41:02.058Z,101705.33
2018-02-27T05:43:32.034Z,101701.95
2018-02-27T05:46:01.360Z,101704.60
2018-02-27T05:48:30.555Z,101701.85
2018-02-27T05:50:59.178Z,101697.51
2018-02-27T05:53:27.643Z,101699.88
2018-02-27T05:55:56.494Z,101703.38
2018-02-27T05:58:25.299Z,101698.34
2018-02-27T06:00:53.919Z,101700.52
2018-02-27T06:03:22.978Z,101700.06
2018-02-27T06:05:52.004Z,101698.66
2018-02-27T06:08:20.396Z,101703.52
2018-02-27T06:10:48.832Z,101711.02
2018-02-27T06:13:17.328Z,101705.88
2018-02-27T06:15:45.790Z,101701.98
2018-02-27T06:18:14.697Z,101702.18
2018-02-27T06:20:43.118Z,101700.97
2018-02-27T06:23:12.856Z,101703.70
2018-02-27T06:25:43.106Z,101701.31
2018-02-27T06:28:11.510Z,101695.19
2018-02-27T06:30:39.925Z,101696.64
2018-02-27T06:33:08.586Z,101704.72
2018-02-27T06:35:36.986Z,101697.58
2018-02-27T06:38:05.821Z,101694.29
2018-02-27T06:40:34.647Z,101691.59
2018-02-27T06:43:03.112Z,101688.69
2018-02-27T06:45:31.511Z,101682.27
2018-02-27T06:48:00.213Z,101678.17
2018-02-27T06:50:29.186Z,101671.34
2018-02-27T06:52:58.034Z,101660.70
2018-02-27T06:55:27.373Z,101655.48
2018-02-27T06:57:55.750Z,101655.59
2018-02-27T07:00:24.670Z,101661.98
2018-02-27T07:02:53.616Z,101668.63
2018-02-27T07:05:22.006Z,101673.44
2018-02-27T07:07:50.616Z,101662.79
2018-02-27T07:10:20.406Z,101672.73
2018-02-27T07:12:48.780Z,101672.61
2018-02-27T07:15:17.620Z,101670.13
2018-02-27T07:17:45.998Z,101668.31
2018-02-27T07:20:14.386Z,101658.48
2018-02-27T07:22:43.125Z,101659.21
2018-02-27T07:25:12.454Z,101655.29
2018-02-27T07:27:41.255Z,101655.66
2018-02-27T07:30:09.993Z,101655.91
2018-02-27T07:32:38.587Z,101658.33
2018-02-27T07:35:06.976Z,101652.56
2018-02-27T07:37:36.076Z,101645.09
2018-02-27T07:40:04.473Z,101643.09
2018-02-27T07:42:33.253Z,101639.98
2018-02-27T07:45:03.234Z,101641.13
2018-02-27T07:47:31.634Z,101639.53
2018-02-27T07:50:00.107Z,101633.12
2018-02-27T07:52:28.484Z,101628.20
2018-02-27T07:54:56.894Z,101632.42
2018-02-27T07:57:25.257Z,101627.83
2018-02-27T07:59:58.036Z,101627.19
2018-02-27T08:02:26.827Z,101628.41
2018-02-27T08:04:58.179Z,101624.40
2018-02-27T08:07:26.953Z,101617.02
2018-02-27T08:09:55.684Z,101615.48
2018-02-27T08:12:24.677Z,101612.80
2018-02-27T08:14:53.236Z,101611.89
2018-02-27T08:17:21.616Z,101612.16
2018-02-27T08:19:51.728Z,101612.39
2018-02-27T08:22:21.474Z,101611.88
2018-02-27T08:24:50.259Z,101621.12
2018-02-27T08:27:19.049Z,101620.95
2018-02-27T08:29:47.834Z,101631.75
2018-02-27T08:32:16.708Z,101631.02
2018-02-27T08:34:45.108Z,101637.50
2018-02-27T08:37:14.078Z,101637.38
2018-02-27T08:39:44.045Z,101630.48
2018-02-27T08:42:13.784Z,101637.25
2018-02-27T08:44:42.819Z,101641.34
2018-02-27T08:47:11.891Z,101640.73
2018-02-27T08:49:41.389Z,101645.11
2018-02-27T08:52:09.766Z,101628.53
2018-02-27T08:54:38.505Z,101634.48
2018-02-27T08:57:07.889Z,101626.39
2018-02-27T08:59:36.743Z,101625.63
2018-02-27T09:02:05.092Z,101625.08
2018-02-27T09:04:33.457Z,101623.92
2018-02-27T09:07:01.812Z,101628.32
2018-02-27T09:09:30.288Z,101620.72
2018-02-27T09:11:59.040Z,101614.62
2018-02-27T09:14:27.461Z,101611.72
2018-02-27T09:16:56.228Z,101617.66
2018-02-27T09:19:24.626Z,101612.42
2018-02-27T09:21:52.996Z,101602.80
2018-02-27T09:24:21.358Z,101603.27
2018-02-27T09:26:49.706Z,101600.23
2018-02-27T09:29:18.081Z,101594.58
2018-02-27T09:31:46.442Z,101593.90
2018-02-27T09:34:14.807Z,101593.06
2018-02-27T09:36:43.200Z,101587.45
2018-02-27T09:39:11.579Z,101589.06
2018-02-27T09:41:39.975Z,101580.39
2018-02-27T09:44:08.385Z,101568.64
2018-02-27T09:46:36.738Z,101577.25
2018-02-27T09:49:05.100Z,101577.14
2018-02-27T09:51:33.478Z,101577.34
2018-02-27T09:54:01.844Z,101577.36
2018-02-27T09:56:30.225Z,101578.63
2018-02-27T09:58:58.601Z,101574.10
2018-02-27T10:01:27.355Z,101568.61
2018-02-27T10:03:55.722Z,101572.78
2018-02-27T10:06:24.088Z,101567.70
2018-02-27T10:08:52.451Z,101564.59
2018-02-27T10:11:20.803Z,101565.27
2018-02-27T10:13:49.570Z,101564.02
2018-02-27T10:16:17.931Z,101568.63
2018-02-27T10:19:03.232Z,101578.38
2018-02-27T10:21:31.976Z,101575.34
2018-02-27T10:24:00.347Z,101570.94
2018-02-27T10:26:28.704Z,101572.81
2018-02-27T10:28:57.071Z,101570.39
2018-02-27T10:31:25.449Z,101578.65
2018-02-27T10:33:53.836Z,101578.28
2018-02-27T10:36:22.216Z,101568.71
2018-02-27T10:38:50.598Z,101570.27
2018-02-27T10:41:18.980Z,101557.11
2018-02-27T10:43:47.349Z,101563.27
2018-02-27T10:46:17.179Z,101558.64
2018-02-27T10:48:46.907Z,101558.31
2018-02-27T10:51:15.475Z,101564.73
2018-02-27T10:53:44.179Z,101559.88
2018-02-27T10:56:12.953Z,101551.91
2018-02-27T10:58:41.555Z,101554.63
2018-02-27T11:01:15.814Z,101543.62
2018-02-27T11:03:44.944Z,101550.50
2018-02-27T11:06:13.403Z,101541.59
2018-02-27T11:08:41.769Z,101547.55
2018-02-27T11:11:10.516Z,101550.08
2018-02-27T11:13:39.737Z,101538.54
2018-02-27T11:16:08.120Z,101536.31
2018-02-27T11:18:36.472Z,101535.23
2018-02-27T11:21:04.816Z,101535.53
2018-02-27T11:23:33.177Z,101538.28
2018-02-27T11:26:01.923Z,101532.46
2018-02-27T11:28:30.296Z,101528.99
2018-02-27T11:30:58.643Z,101530.91
2018-02-27T11:33:27.015Z,101522.47
2018-02-27T11:35:56.682Z,101531.11
2018-02-27T11:38:26.047Z,101531.55
2018-02-27T11:40:54.616Z,101533.90
2018-02-27T11:43:25.739Z,101529.41
2018-02-27T11:45:54.242Z,101527.95
2018-02-27T11:48:22.640Z,101533.88
2018-02-27T11:50:50.992Z,101518.05
2018-02-27T11:53:19.356Z,101529.08
2018-02-27T11:55:48.096Z,101525.44
2018-02-27T11:58:16.468Z,101526.67
2018-02-27T12:00:44.820Z,101523.86
2018-02-27T12:03:13.190Z,101522.33
2018-02-27T12:05:41.544Z,101537.37
2018-02-27T12:08:10.313Z,101527.56
2018-02-27T12:10:38.663Z,101527.93
2018-02-27T12:13:07.583Z,101525.95
2018-02-27T12:15:35.930Z,101521.17
2018-02-27T12:18:04.284Z,101527.56
2018-02-27T12:20:33.571Z,101522.12
2018-02-27T12:23:02.208Z,101524.14
2018-02-27T12:25:31.577Z,101523.80
2018-02-27T12:27:59.984Z,101519.53
2018-02-27T12:30:28.335Z,101514.53
2018-02-27T12:32:56.688Z,101515.95
2018-02-27T12:35:25.436Z,101527.12
2018-02-27T12:37:53.831Z,101517.92
2018-02-27T12:40:22.180Z,101519.14
2018-02-27T12:42:50.544Z,101515.82
2018-02-27T12:45:18.896Z,101518.33
2018-02-27T12:47:47.256Z,101517.80
2018-02-27T12:50:16.002Z,101518.97
2018-02-27T12:52:44.367Z,101512.54
2018-02-27T12:55:12.738Z,101513.61
2018-02-27T12:57:41.140Z,101508.35
2018-02-27T13:00:09.512Z,101512.21
2018-02-27T13:02:37.876Z,101512.66
2018-02-27T13:05:06.238Z,101511.65
2018-02-27T13:07:34.599Z,101507.16
2018-02-27T13:10:03.346Z,101514.84
2018-02-27T13:12:31.729Z,101512.92
2018-02-27T13:15:00.096Z,101509.41
2018-02-27T13:17:28.463Z,101510.53
2018-02-27T13:19:56.831Z,101509.44
2018-02-27T13:22:25.237Z,101506.23
2018-02-27T13:24:53.595Z,101503.58
2018-02-27T13:27:21.976Z,101497.72
2018-02-27T13:29:50.323Z,101504.84
2018-02-27T13:32:18.701Z,101504.07
2018-02-27T13:34:47.462Z,101505.65
2018-02-27T13:37:15.814Z,101499.39
2018-02-27T13:39:44.175Z,101498.70
2018-02-27T13:42:12.549Z,101505.20
2018-02-27T13:44:40.901Z,101505.20
2018-02-27T13:47:09.298Z,101504.59
2018-02-27T13:49:37.673Z,101499.11
2018-02-27T13:52:06.039Z,101502.20
2018-02-27T13:54:34.392Z,101500.02
2018-02-27T13:57:02.769Z,101500.42
2018-02-27T13:59:31.524Z,101493.78
2018-02-27T14:01:59.889Z,101489.09
2018-02-27T14:04:28.250Z,101487.95
2018-02-27T14:06:56.608Z,101490.42
2018-02-27T14:09:25.360Z,101495.52
2018-02-27T14:11:53.724Z,101494.13
2018-02-27T14:14:22.092Z,101498.59
2018-02-27T14:16:50.470Z,101496.97
2018-02-27T14:19:18.850Z,101498.26
2018-02-27T14:21:47.333Z,101499.43
2018-02-27T14:24:15.810Z,101496.98
2018-02-27T14:26:44.207Z,101499.99
2018-02-27T14:29:12.567Z,101506.81
2018-02-27T14:31:40.934Z,101520.39
2018-02-27T14:34:09.300Z,101508.30
2018-02-27T14:36:38.048Z,101503.55
2018-02-27T14:39:06.413Z,101506.11
2018-02-27T14:41:34.771Z,101513.97
2018-02-27T14:44:03.157Z,101513.56
2018-02-27T14:46:31.532Z,101503.78
2018-02-27T14:48:59.893Z,101521.63
2018-02-27T14:51:28.249Z,101522.25
2018-02-27T14:53:56.991Z,101526.89
2018-02-27T14:56:25.350Z,101536.85
2018-02-27T14:58:53.712Z,101528.94
2018-02-27T15:01:22.066Z,101535.50
2018-02-27T15:03:50.811Z,101523.11
2018-02-27T15:06:19.179Z,101529.88
2018-02-27T15:08:47.530Z,101541.45
2018-02-27T15:11:15.888Z,101530.85
2018-02-27T15:13:44.739Z,101543.05
2018-02-27T15:16:13.112Z,101542.33
2018-02-27T15:18:41.473Z,101545.70
2018-02-27T15:21:09.847Z,101549.06
2018-02-27T15:23:38.191Z,101548.55
2018-02-27T15:26:06.948Z,101545.27
2018-02-27T15:28:35.320Z,101550.84
2018-02-27T15:31:03.703Z,101554.92
2018-02-27T15:33:32.061Z,101548.20
2018-02-27T15:36:00.439Z,101555.56
2018-02-27T15:38:28.814Z,101552.08
2018-02-27T15:40:57.176Z,101550.34
2018-02-27T15:43:25.551Z,101564.23
2018-02-27T15:45:53.921Z,101572.49
2018-02-27T15:48:22.692Z,101565.33
2018-02-27T15:50:51.062Z,101563.45
2018-02-27T15:53:19.410Z,101575.09
2018-02-27T15:55:47.768Z,101561.41
2018-02-27T15:58:16.165Z,101561.24
2018-02-27T16:00:44.544Z,101569.55
2018-02-27T16:03:12.928Z,101577.88
2018-02-27T16:05:41.283Z,101571.42
2018-02-27T16:08:09.659Z,101572.87
2018-02-27T16:10:38.016Z,101575.91
2018-02-27T16:13:07.078Z,101577.50
2018-02-27T16:15:35.545Z,101584.88
2018-02-27T16:18:03.981Z,101578.73
2018-02-27T16:20:32.377Z,101595.21
2018-02-27T16:23:00.743Z,101582.55
2018-02-27T16:25:29.101Z,101586.78
2018-02-27T16:27:57.862Z,101579.86
2018-02-27T16:30:26.223Z,101584.70
2018-02-27T16:32:54.578Z,101585.94
2018-02-27T16:35:22.941Z,101595.56
2018-02-27T16:37:51.292Z,101590.84
2018-02-27T16:40:20.140Z,101605.52
2018-02-27T16:42:48.504Z,101603.53
2018-02-27T16:45:16.892Z,101603.63
2018-02-27T16:47:45.263Z,101635.98
2018-02-27T16:50:13.659Z,101617.52
2018-02-27T16:52:42.025Z,101603.86
2018-02-27T16:55:10.417Z,101614.64
2018-02-27T16:57:38.803Z,101633.19
2018-02-27T17:00:07.170Z,101608.83
2018-02-27T17:02:35.553Z,101630.06
2018-02-27T17:05:03.915Z,101630.39
2018-02-27T17:07:32.315Z,101652.67
2018-02-27T17:10:00.672Z,101642.12
2018-02-27T17:12:29.052Z,101656.33
2018-02-27T17:14:57.416Z,101647.42
2018-02-27T17:17:25.822Z,101659.23
2018-02-27T17:19:54.184Z,101654.84
2018-02-27T17:22:22.596Z,101675.54
2018-02-27T17:24:51.404Z,101676.56
2018-02-27T17:27:20.208Z,101661.69
2018-02-27T17:29:48.616Z,101677.22
2018-02-27T17:32:17.033Z,101660.63
2018-02-27T17:34:45.835Z,101662.29
2018-02-27T17:37:14.240Z,101670.09
2018-02-27T17:39:42.647Z,101662.64
2018-02-27T17:42:11.056Z,101674.20
2018-02-27T17:44:39.498Z,101669.60
2018-02-27T17:47:07.893Z,101661.83
2018-02-27T17:49:36.289Z,101665.70
2018-02-27T17:52:05.112Z,101665.38
2018-02-27T17:54:33.517Z,101666.95
2018-02-27T17:57:01.923Z,101660.97
2018-02-27T17:59:30.328Z,101670.23
2018-02-27T18:01:59.141Z,101669.16
2018-02-27T18:04:27.528Z,101656.13
2018-02-27T18:06:55.980Z,101684.13
2018-02-27T18:09:24.782Z,101669.42
2018-02-27T18:11:53.235Z,101672.25
2018-02-27T18:14:21.627Z,101673.45
2018-02-27T18:16:50.425Z,101674.78
2018-02-27T18:19:18.831Z,101670.38
2018-02-27T18:21:47.258Z,101664.02
2018-02-27T18:24:15.652Z,101668.46
2018-02-27T18:26:44.463Z,101676.69
2018-02-27T18:29:12.867Z,101675.30
2018-02-27T18:31:41.274Z,101681.75
2018-02-27T18:34:09.685Z,101675.23
2018-02-27T18:36:38.494Z,101681.20
2018-02-27T18:39:06.975Z,101676.25
2018-02-27T18:41:35.398Z,101688.59
2018-02-27T18:44:03.914Z,101683.48
2018-02-27T18:46:32.622Z,101691.05
2018-02-27T18:49:01.023Z,101686.88
2018-02-27T18:51:29.444Z,101685.62
2018-02-27T18:53:57.869Z,101686.19
2018-02-27T18:56:26.294Z,101692.56
2018-02-27T18:58:54.700Z,101685.77
2018-02-27T19:01:23.495Z,101696.28
2018-02-27T19:03:52.292Z,101703.32
2018-02-27T19:06:20.695Z,101698.80
2018-02-27T19:08:49.134Z,101707.36
2018-02-27T19:11:17.555Z,101700.95
2018-02-27T19:13:45.953Z,101706.12
2018-02-27T19:16:14.395Z,101700.50
2018-02-27T19:18:42.791Z,101711.09
2018-02-27T19:21:11.230Z,101715.12
2018-02-27T19:23:40.028Z,101713.78
2018-02-27T19:26:08.837Z,101714.34
2018-02-27T19:28:37.253Z,101711.75
2018-02-27T19:31:05.699Z,101712.86
2018-02-27T19:33:34.122Z,101716.58
2018-02-27T19:36:02.542Z,101708.45
2018-02-27T19:38:31.368Z,101711.02
2018-02-27T19:40:59.777Z,101708.44
2018-02-27T19:43:28.176Z,101709.01
2018-02-27T19:45:56.573Z,101712.41
2018-02-27T19:48:25.352Z,101711.52
2018-02-27T19:50:54.141Z,101710.67
2018-02-27T19:53:22.582Z,101721.03
2018-02-27T19:55:50.981Z,101720.92
2018-02-27T19:58:19.364Z,101727.59
2018-02-27T20:00:47.779Z,101729.98
2018-02-27T20:03:16.215Z,101741.11
2018-02-27T20:05:44.616Z,101742.71
2018-02-27T20:08:13.404Z,101750.48
2018-02-27T20:10:42.231Z,101747.97
2018-02-27T20:13:10.619Z,101765.27
2018-02-27T20:15:39.042Z,101764.20
2018-02-27T20:18:11.720Z,101751.08
2018-02-27T20:20:40.125Z,101754.14
2018-02-27T20:26:12.604Z,101762.20
2018-02-27T20:28:46.971Z,101755.89
2018-02-27T20:31:15.391Z,101763.48
2018-02-27T20:33:43.892Z,101764.41
2018-02-27T20:36:12.692Z,101775.91
2018-02-27T20:38:46.617Z,101792.91
2018-02-27T20:41:15.018Z,101777.56
2018-02-27T20:43:43.412Z,101780.02
2018-02-27T20:46:11.821Z,101787.45
2018-02-27T20:48:40.685Z,101807.94
2018-02-27T20:51:09.096Z,101792.23
2018-02-27T20:53:37.883Z,101807.52
2018-02-27T20:56:06.297Z,101808.38
2018-02-27T20:58:34.732Z,101802.08
2018-02-27T21:01:03.213Z,101803.30
2018-02-27T21:03:32.020Z,101826.41
2018-02-27T21:06:02.374Z,101811.97
2018-02-27T21:08:30.979Z,101823.23
2018-02-27T21:10:59.489Z,101827.03
2018-02-27T21:13:27.890Z,101830.55
2018-02-27T21:15:56.968Z,101823.00
2018-02-27T21:18:25.774Z,101840.55
2018-02-27T21:20:54.819Z,101841.09
2018-02-27T21:23:23.344Z,101883.52
2018-02-27T21:25:51.776Z,101844.53
2018-02-27T21:28:20.627Z,101844.33
2018-02-27T21:30:49.781Z,101844.64
2018-02-27T21:33:18.196Z,101854.67
2018-02-27T21:35:47.087Z,101850.42
2018-02-27T21:38:18.521Z,101854.41
2018-02-27T21:40:47.237Z,101859.06
2018-02-27T21:43:15.636Z,101875.45
2018-02-27T21:45:44.129Z,101868.47
2018-02-27T21:48:12.549Z,101848.61
2018-02-27T21:50:40.978Z,101847.22
2018-02-27T21:53:09.429Z,101857.99
2018-02-27T21:55:39.079Z,101859.13
2018-02-27T21:58:07.731Z,101863.31
2018-02-27T22:00:36.159Z,101853.79
2018-02-27T22:03:04.950Z,101865.44
2018-02-27T22:05:33.782Z,101858.59
2018-02-27T22:08:02.670Z,101860.98
2018-02-27T22:10:31.714Z,101867.28
2018-02-27T22:13:01.286Z,101865.70
2018-02-27T22:15:29.706Z,101865.64
2018-02-27T22:17:58.507Z,101873.91
2018-02-27T22:20:27.265Z,101875.73
2018-02-27T22:22:55.700Z,101867.94
2018-02-27T22:25:24.152Z,101886.84
2018-02-27T22:27:52.556Z,101879.52
2018-02-27T22:30:22.753Z,101886.88
2018-02-27T22:32:51.158Z,101874.58
2018-02-27T22:35:19.957Z,101903.44
2018-02-27T22:37:48.752Z,101905.40
2018-02-27T22:40:17.524Z,101887.94
2018-02-27T22:42:46.327Z,101888.23
2018-02-27T22:45:15.245Z,101883.02
2018-02-27T22:47:43.697Z,101886.50
2018-02-27T22:50:12.126Z,101886.62
2018-02-27T22:52:40.668Z,101897.95
2018-02-27T22:55:09.435Z,101906.66
2018-02-27T22:57:38.259Z,101903.73
2018-02-27T23:00:08.230Z,101908.37
2018-02-27T23:02:37.568Z,101912.34
2018-02-27T23:05:05.990Z,101897.95
2018-02-27T23:07:34.394Z,101908.16
2018-02-27T23:10:03.459Z,101902.06
2018-02-27T23:12:31.949Z,101899.09
2018-02-27T23:15:00.850Z,101899.00
2018-02-27T23:17:30.265Z,101901.97
2018-02-27T23:19:58.712Z,101910.18
2018-02-27T23:22:27.140Z,101893.41
2018-02-27T23:28:09.863Z,101884.97
2018-02-27T23:30:40.939Z,101900.94
2018-02-27T23:33:10.236Z,101895.77
2018-02-27T23:35:40.022Z,101904.11
2018-02-27T23:38:08.829Z,101895.19
2018-02-27T23:40:38.258Z,101903.47
2018-02-27T23:43:07.322Z,101903.50
2018-02-27T23:45:36.491Z,101903.48
2018-02-27T23:48:05.005Z,101899.00
2018-02-27T23:50:33.717Z,101893.69
2018-02-27T23:53:02.151Z,101908.69
2018-02-27T23:55:31.065Z,101905.09
2018-02-27T23:58:00.877Z,101899.52
